Flight Track Log - Related Links

Times and Time Zones

All times are in EDT time to prevent confusion due to time zone crossing. See the LAN2531 flight status page for this flight to view local times or setup timezone preferences in your user account.

Time Position Orientation Groundspeed Altitude Reporting Facility
EDT Latitude Longitude Course Direction KTS MPH feet Rate Location/Type
Mon 11:59:07 PM 40.6430 -73.7690 31° Northeast 181 208  Level FlightAware
Mon 11:59:32 PM 40.6590 -73.7560 32° Northeast 181 208 1,100 2,400 Climbing FlightAware
Mon 11:59:47 PM 40.6650 -73.7390 65° Northeast 187 215 1,600 1,600 Climbing FlightAware
Tue 12:00:17 AM 40.6690 -73.7020 82° East 223 257 2,300 1,745 Climbing FlightAware
Tue 12:00:42 AM 40.6590 -73.6700 112° Southeast 245 282 3,200 2,400 Climbing FlightAware
Tue 12:00:57 AM 40.6440 -73.6560 145° Southeast 255 293 3,900 2,933 Climbing FlightAware
Tue 12:01:27 AM 40.6130 -73.6340 152° Southeast 266 306 5,400 3,273 Climbing FlightAware
Tue 12:01:52 AM 40.5850 -73.6170 155° Southeast 264 304 6,900 3,750 Climbing FlightAware
Tue 12:02:07 AM 40.5672 -73.6057 154° Southeast 263 303 7,900 3,600 Climbing FlightAware
Tue 12:02:22 AM 40.5502 -73.5952 155° Southeast 264 304 8,700 2,903 Climbing FlightAware
Tue 12:02:38 AM 40.5327 -73.5842 154° Southeast 268 308 9,400 2,714 Climbing FlightAware
Tue 12:03:04 AM 40.5028 -73.5651 154° Southeast 278 320 10,600 2,000 Climbing FlightAware
Tue 12:03:35 AM 40.4646 -73.5406 154° Southeast 317 365 11,300 1,377 Climbing FlightAware
Tue 12:04:05 AM 40.4225 -73.5136 154° Southeast 352 405 12,000 1,574 Climbing FlightAware
Tue 12:04:36 AM 40.3762 -73.4841 154° Southeast 377 434 12,900 2,323 Climbing FlightAware
Tue 12:05:07 AM 40.3272 -73.4530 154° Southeast 385 443 14,400 2,656 Climbing FlightAware
Tue 12:05:37 AM 40.2771 -73.4228 155° Southeast 394 453 15,600 2,341 Climbing FlightAware
Tue 12:05:48 AM 40.2572 -73.4184 170° South 404 465 16,000 2,250 Climbing FlightAware
Tue 12:05:53 AM 40.2484 -73.4181 179° South 405 466 16,200 2,769 Climbing FlightAware
Tue 12:06:01 AM 40.2324 -73.4191 183° South 408 470 16,600 2,727 Climbing FlightAware
Tue 12:06:15 AM 40.2074 -73.4259 192° South 414 476 17,200 2,571 Climbing FlightAware
Tue 12:06:22 AM 40.1933 -73.4335 202° Southwest 418 481 17,500 2,609 Climbing FlightAware
Tue 12:06:38 AM 40.1662 -73.4531 209° Southwest 423 487 18,200 2,170 Climbing FlightAware
Tue 12:07:09 AM 40.1131 -73.4924 210° Southwest 434 499 19,200 2,164 Climbing FlightAware
Tue 12:07:39 AM 40.0603 -73.5332 211° Southwest 441 507 20,400 1,970 Climbing FlightAware
Tue 12:08:16 AM 39.9955 -73.5826 210° Southwest 456 525 21,400 2,000 Climbing FlightAware
Tue 12:08:48 AM 39.9371 -73.6266 210° Southwest 458 527 22,700 1,455 Climbing FlightAware
Tue 12:09:22 AM 39.8736 -73.6744 210° Southwest 466 536 23,000 1,200 Climbing FlightAware
Tue 12:09:53 AM 39.8151 -73.7180 210° Southwest 465 535 24,000 1,770 Climbing FlightAware
Tue 12:10:23 AM 39.7584 -73.7603 210° Southwest 474 545 24,800 1,672 Climbing FlightAware
Tue 12:10:54 AM 39.6992 -73.8044 210° Southwest 478 550 25,700 1,839 Climbing FlightAware
Tue 12:11:25 AM 39.6405 -73.8493 211° Southwest 479 551 26,700 2,459 Climbing FlightAware
Tue 12:11:55 AM 39.5836 -73.8933 211° Southwest 470 541 28,200 2,516 Climbing FlightAware
Tue 12:12:27 AM 39.5246 -73.9389 211° Southwest 465 535 29,300 1,935 Climbing FlightAware
Tue 12:12:57 AM 39.4693 -73.9814 211° Southwest 465 535 30,200 1,800 Climbing FlightAware
Tue 12:13:27 AM 39.4135 -74.0241 211° Southwest 465 535 31,100 1,672 Climbing FlightAware
Tue 12:13:58 AM 39.3572 -74.0670 211° Southwest 458 527 31,900 885 Climbing FlightAware
Tue 12:14:28 AM 39.3016 -74.1093 210° Southwest 453 521 32,000 393 Climbing FlightAware
Tue 12:14:59 AM 39.2467 -74.1508 210° Southwest 454 522 32,300 871 Climbing FlightAware
Tue 12:15:30 AM 39.1906 -74.1934 210° Southwest 454 522 32,900 1,082 Climbing FlightAware
Tue 12:16:00 AM 39.1352 -74.2354 210° Southwest 460 529 33,400 984 Climbing FlightAware
Tue 12:16:31 AM 39.0793 -74.2776 210° Southwest 460 529 33,900 581 Climbing FlightAware
Tue 12:17:02 AM 39.0227 -74.3203 210° Southwest 460 529 34,000 97 Climbing FlightAware
Tue 12:17:33 AM 38.9660 -74.3630 210° Southwest 458 527 34,000  Level FlightAware
Tue 12:18:03 AM 38.9107 -74.4044 210° Southwest 458 527 34,000  Level FlightAware
Tue 12:18:33 AM 38.8557 -74.4457 210° Southwest 458 527 34,000  Level FlightAware
Tue 12:19:04 AM 38.7984 -74.4886 210° Southwest 458 527 34,000  Level FlightAware
Tue 12:19:34 AM 38.7435 -74.5297 210° Southwest 458 527 34,000  Level FlightAware
Tue 12:20:06 AM 38.6856 -74.5730 210° Southwest 458 527 34,000  Level FlightAware
Tue 12:21:01 AM 38.5854 -74.6474 210° Southwest 457 526 34,000  Level FlightAware
Tue 12:21:33 AM 38.5273 -74.6904 210° Southwest 455 524 34,000  Level FlightAware
Tue 12:22:04 AM 38.4702 -74.7326 210° Southwest 452 520 34,000  Level FlightAware
Tue 12:22:34 AM 38.4159 -74.7728 210° Southwest 450 518 34,000  Level FlightAware
Tue 12:23:07 AM 38.3760 -74.8020 210° Southwest 448 516 34,000  Level FlightAware
Tue 12:23:31 AM 38.3141 -74.8479 210° Southwest 449 517 34,000  Level FlightAware
Tue 12:24:01 AM 38.2600 -74.8877 210° Southwest 446 513 34,000  Level FlightAware
Tue 12:24:32 AM 38.2057 -74.9274 210° Southwest 445 512 34,000  Level FlightAware
Tue 12:25:04 AM 38.1473 -74.9704 210° Southwest 444 511 34,000  Level FlightAware
Tue 12:25:35 AM 38.0934 -75.0098 210° Southwest 442 509 34,000  Level FlightAware
Tue 12:26:05 AM 38.0403 -75.0486 210° Southwest 439 505 34,000  Level FlightAware
Tue 12:26:52 AM 37.9630 -75.1050 210° Southwest 430 495 34,000  Level FlightAware
Tue 12:27:02 AM 37.9400 -75.1216 210° Southwest 439 505 34,000  Level FlightAware
Tue 12:27:32 AM 37.8871 -75.1600 210° Southwest 436 502 34,000  Level FlightAware
Tue 12:28:02 AM 37.8349 -75.1980 210° Southwest 435 501 34,000  Level FlightAware
Tue 12:28:33 AM 37.7816 -75.2365 210° Southwest 433 498 34,000  Level FlightAware
Tue 12:29:03 AM 37.7294 -75.2743 210° Southwest 430 495 34,000  Level FlightAware
Tue 12:29:33 AM 37.6776 -75.3118 210° Southwest 427 491 34,000  Level FlightAware
Tue 12:30:04 AM 37.6254 -75.3493 210° Southwest 426 490 34,000  Level FlightAware
Tue 12:31:02 AM 37.5320 -75.4160 210° Southwest 423 487 34,000  Level FlightAware
Tue 12:31:47 AM 37.4540 -75.4720 210° Southwest 421 484 34,000  Level FlightAware
Tue 12:32:27 AM 37.3910 -75.5180 210° Southwest 422 486 34,000  Level FlightAware
Tue 12:33:09 AM 37.3099 -75.5754 209° Southwest 422 486 34,000  Level FlightAware
Tue 12:33:39 AM 37.2591 -75.6117 210° Southwest 422 486 34,000  Level FlightAware
Tue 12:34:11 AM 37.2054 -75.6498 209° Southwest 421 484 34,000  Level FlightAware
Tue 12:34:41 AM 37.1533 -75.6870 210° Southwest 423 487 34,000  Level FlightAware
Tue 12:35:12 AM 37.1012 -75.7237 209° Southwest 423 487 34,000  Level FlightAware
Tue 12:36:15 AM 36.9951 -75.7988 209° Southwest 424 488 34,000  Level FlightAware
Tue 12:37:37 AM 36.8810 -75.8790 209° Southwest 34,000  Level FlightAware
Tue 12:38:48 AM 36.7397 -75.9444 209° Southwest 417 480 34,000  Level Washington Center
Tue 12:39:48 AM 36.6186 -75.9906 197° South 417 480 34,000  Level Washington Center
Tue 12:40:48 AM 36.5078 -76.0339 197° South 417 480 34,000  Level Washington Center
Tue 12:41:48 AM 36.3969 -76.0797 198° South 423 487 34,000  Level Washington Center
Tue 12:42:48 AM 36.2822 -76.1203 196° South 423 487 34,000  Level Washington Center
Tue 12:43:49 AM 36.1692 -76.1633 197° South 423 487 34,000 -50 Level Washington Center
Tue 12:44:48 AM 36.0564 -76.2036 196° South 423 487 33,900  Descending Washington Center
Tue 12:45:48 AM 35.9436 -76.2436 196° South 423 487 34,000  Climbing Washington Center
Tue 12:46:48 AM 35.8306 -76.2889 198° South 423 487 33,900  Descending Washington Center
Tue 12:47:48 AM 35.7156 -76.3264 195° South 423 487 34,000 50 Climbing Washington Center
Tue 12:48:48 AM 35.6006 -76.3636 195° South 423 487 34,000  Level Washington Center
Tue 12:49:49 AM 35.4897 -76.4033 196° South 418 481 34,000  Level Washington Center
Tue 12:50:48 AM 35.3769 -76.4403 195° South 418 481 34,000  Level Washington Center
Tue 12:51:48 AM 35.2681 -76.4850 199° South 418 481 34,000  Level Washington Center
Tue 12:52:48 AM 35.1550 -76.5244 196° South 418 481 34,000  Level Washington Center
Tue 12:53:48 AM 35.0442 -76.5636 196° South 418 481 34,000  Level Washington Center
Tue 12:54:49 AM 34.9353 -76.6056 198° South 418 481 34,000  Level Washington Center
Tue 12:55:48 AM 34.8203 -76.6419 195° South 418 481 34,000  Level Washington Center
Tue 12:56:49 AM 34.7094 -76.6811 196° South 418 481 34,000  Level Washington Center
Tue 12:57:48 AM 34.5942 -76.7172 194° South 418 481 34,000  Level Washington Center
Tue 12:58:48 AM 34.4853 -76.7586 197° South 418 481 34,000  Level Washington Center
Tue 12:59:49 AM 34.3744 -76.7975 196° South 418 481 34,000  Level Washington Center
Tue 01:00:49 AM 34.2614 -76.8358 196° South 418 481 34,000  Level Washington Center
Tue 01:01:48 AM 34.1503 -76.8719 195° South 418 481 34,000  Level Washington Center
Tue 01:02:48 AM 34.0394 -76.9103 196° South 418 481 34,000  Level Washington Center
Tue 01:03:48 AM 33.9283 -76.9486 196° South 418 481 34,000  Level Washington Center
Tue 01:06:02 AM 33.6794 -77.0328 196° South 424 488 34,000 -31 Level Jacksonville Center
Tue 01:07:02 AM 33.5664 -77.0678 194° South 424 488 33,900  Descending Jacksonville Center
Tue 01:08:02 AM 33.4575 -77.1072 197° South 418 481 34,000 50 Climbing Jacksonville Center
Tue 01:09:02 AM 33.3467 -77.1444 196° South 418 481 34,000  Level Jacksonville Center
Tue 01:10:02 AM 33.2356 -77.1814 196° South 413 475 34,000 -50 Level Jacksonville Center
Tue 01:11:02 AM 33.1286 -77.2153 195° South 413 475 33,900  Descending Jacksonville Center
Tue 01:12:02 AM 33.0194 -77.2494 195° South 413 475 34,000 50 Climbing Jacksonville Center
Tue 01:13:02 AM 32.9067 -77.2889 196° South 413 475 34,000  Level Jacksonville Center
Tue 01:14:02 AM 32.7975 -77.3228 195° South 413 475 34,000  Level Jacksonville Center
Tue 01:15:02 AM 32.6864 -77.3592 195° South 413 475 34,000  Level Jacksonville Center
Tue 01:16:02 AM 32.5753 -77.3981 196° South 413 475 34,000  Level Jacksonville Center
Tue 01:17:02 AM 32.4664 -77.4342 196° South 413 475 34,000  Level Jacksonville Center
Tue 01:18:02 AM 32.3572 -77.4703 196° South 413 475 34,000  Level Jacksonville Center
Tue 01:19:02 AM 32.2481 -77.5061 196° South 413 475 34,000  Level Jacksonville Center
Tue 01:20:02 AM 32.1389 -77.5397 195° South 413 475 34,000  Level Jacksonville Center
Tue 01:21:02 AM 32.0297 -77.5753 195° South 413 475 34,000  Level Jacksonville Center
Tue 01:22:02 AM 31.9206 -77.6086 195° South 413 475 34,000  Level Jacksonville Center
Tue 01:23:02 AM 31.8117 -77.6492 198° South 413 475 34,000  Level Jacksonville Center
Tue 01:24:02 AM 31.7044 -77.6769 192° South 413 475 34,000  Level Jacksonville Center
Tue 01:25:02 AM 31.5953 -77.7125 196° South 413 475 34,000  Level Jacksonville Center
Tue 01:26:02 AM 31.4881 -77.7500 197° South 413 475 34,000  Level Jacksonville Center
Tue 01:27:02 AM 31.3811 -77.7853 196° South 408 470 34,000 -50 Level Jacksonville Center
Tue 01:28:02 AM 31.2719 -77.8228 196° South 408 470 33,900  Descending Jacksonville Center
Tue 01:29:02 AM 31.1644 -77.8503 192° South 408 470 34,000 50 Climbing Jacksonville Center
Tue 01:30:02 AM 31.0569 -77.8781 192° South 408 470 34,000  Level Jacksonville Center
Tue 01:31:02 AM 30.9483 -77.9250 200° South 413 475 34,000  Level Jacksonville Center
Tue 01:32:45 AM 30.7614 -77.9922 197° South 418 481 34,000  Level Miami Center
Tue 01:33:47 AM 30.6653 -78.0200 194° South 409 471 34,000 -50 Level Miami Center
Tue 01:34:45 AM 30.5608 -78.0528 195° South 398 458 33,900  Descending Miami Center
Tue 01:35:46 AM 30.4522 -78.0875 195° South 403 464 34,000 50 Climbing Miami Center
Tue 01:36:45 AM 30.3436 -78.1103 190° South 403 464 34,000  Level Miami Center
Tue 01:37:46 AM 30.2331 -78.1283 188° South 403 464 34,000  Level Miami Center
Tue 01:38:45 AM 30.1100 -78.1483 188° South 420 483 34,000  Level Miami Center
Tue 01:39:48 AM 29.9908 -78.1708 189° South 425 489 34,000  Level Miami Center
Tue 01:40:45 AM 29.8781 -78.1936 190° South 420 483 34,000  Level Miami Center
Tue 01:41:48 AM 29.7611 -78.2136 188° South 420 483 34,000  Level Miami Center
Tue 01:42:45 AM 29.6483 -78.2311 188° South 426 490 34,000  Level Miami Center
Tue 01:43:45 AM 29.5250 -78.2464 186° South 431 496 34,000  Level Miami Center
Tue 01:44:45 AM 29.4144 -78.2664 189° South 426 490 34,000  Level Miami Center
Tue 01:45:46 AM 29.2972 -78.2864 188° South 428 493 34,000  Level Miami Center
Tue 01:46:45 AM 29.1761 -78.2992 185° South 428 493 34,000  Level Miami Center
Tue 01:47:45 AM 29.0653 -78.3189 189° South 423 487 34,000  Level Miami Center
Tue 01:48:45 AM 28.9442 -78.3364 187° South 429 494 34,000  Level Miami Center
Tue 01:49:48 AM 28.8333 -78.3561 189° South 429 494 34,000  Level Miami Center
Tue 01:50:47 AM 28.7164 -78.3711 186° South 423 487 34,000  Level Miami Center
Tue 01:51:48 AM 28.6014 -78.3886 188° South 428 493 34,000  Level Miami Center
Tue 01:57:47 AM 27.9070 -78.4930 188° South 418 481 34,000  Level FlightAware
Tue 01:58:32 AM 27.8150 -78.5070 188° South 421 484 34,000  Level FlightAware
Tue 01:59:17 AM 27.7340 -78.5190 187° South 422 486 34,000  Level FlightAware
Tue 01:59:57 AM 27.6490 -78.5320 188° South 423 487 34,000  Level FlightAware
Tue 02:00:42 AM 27.5610 -78.5450 187° South 424 488 34,000  Level FlightAware
Tue 02:01:37 AM 27.5440 -78.5480 189° South 424 488 34,000  Level FlightAware
Tue 02:02:17 AM 27.3830 -78.5720 188° South 422 486 34,000  Level FlightAware
Tue 02:03:02 AM 27.2980 -78.5850 188° South 422 486 34,000  Level FlightAware
Tue 02:03:42 AM 27.2170 -78.5980 188° South 422 486 34,000  Level FlightAware
Tue 02:04:27 AM 27.1320 -78.6100 187° South 421 484 34,000  Level FlightAware
Tue 02:05:07 AM 27.0520 -78.6220 188° South 422 486 34,000  Level FlightAware
Tue 02:05:47 AM 26.9770 -78.6340 188° South 423 487 34,000  Level FlightAware
Tue 02:06:32 AM 26.8790 -78.6480 187° South 424 488 34,000  Level FlightAware
Tue 02:07:12 AM 26.8000 -78.6600 188° South 425 489 34,000  Level FlightAware
Tue 02:07:57 AM 26.7140 -78.6730 188° South 425 489 34,000  Level FlightAware
Tue 02:08:37 AM 26.6360 -78.6850 188° South 425 489 34,000  Level FlightAware
Tue 02:09:17 AM 26.5580 -78.6960 187° South 425 489 34,000  Level FlightAware
Tue 02:10:12 AM 26.4520 -78.7120 188° South 418 481 34,000  Level FlightAware
Tue 02:10:57 AM 26.3630 -78.7250 187° South 418 481 34,000  Level FlightAware
Tue 02:11:52 AM 26.2550 -78.7420 188° South 426 490 34,000  Level FlightAware
Tue 02:12:32 AM 26.1770 -78.7530 187° South 424 488 34,000  Level FlightAware
Tue 02:13:17 AM 26.0900 -78.7660 188° South 424 488 34,000  Level FlightAware
Tue 02:13:57 AM 26.0110 -78.7780 188° South 420 483 34,000  Level FlightAware
Tue 02:14:37 AM 25.9310 -78.7890 187° South 422 486 34,000  Level FlightAware
Tue 02:15:37 AM 25.8110 -78.8070 188° South 422 486 34,000  Level FlightAware
Tue 02:16:17 AM 25.7330 -78.8190 188° South 423 487 34,000  Level FlightAware
Tue 02:17:02 AM 25.6430 -78.8320 187° South 424 488 34,000 387 Level FlightAware
Tue 02:18:52 AM 25.4330 -78.8630 188° South 422 486 35,000 333 Climbing FlightAware
Tue 02:20:02 AM 25.2950 -78.8830 187° South 420 483 35,000  Level FlightAware
Tue 02:21:27 AM 25.1270 -78.9070 187° South 418 481 35,000  Level FlightAware
Tue 02:22:37 AM 24.9970 -78.9260 188° South 424 488 35,000  Level FlightAware
Tue 02:23:32 AM 24.8860 -78.9420 187° South 424 488 35,000  Level FlightAware
Tue 02:24:07 AM 24.8140 -78.9530 188° South 425 489 35,000  Level FlightAware
Tue 02:24:57 AM 24.7230 -78.9650 187° South 425 489 35,000  Level FlightAware
Tue 02:25:37 AM 24.6570 -78.9740 187° South 425 489 35,000  Level FlightAware
Tue 02:26:17 AM 24.5520 -78.9910 188° South 426 490 35,000  Level FlightAware
Tue 02:27:12 AM 24.4500 -79.0050 187° South 428 493 35,000  Level FlightAware
Tue 02:27:52 AM 24.3830 -79.0140 187° South 428 493 35,000  Level FlightAware
Tue 02:28:42 AM 24.3000 -79.0250 187° South 428 493 35,000  Level FlightAware
Tue 02:29:22 AM 24.2330 -79.0340 187° South 428 493 35,000  Level FlightAware
Tue 02:30:02 AM 24.1660 -79.0430 187° South 428 493 35,000  Level FlightAware
Tue 02:30:42 AM 24.0990 -79.0520 187° South 428 493 35,000  Level FlightAware
Tue 02:31:22 AM 24.0320 -79.0610 187° South 428 493 35,000  Level FlightAware
Tue 02:32:02 AM 23.9660 -79.0700 187° South 428 493 35,000  Level FlightAware
Tue 02:32:52 AM 23.8820 -79.0810 187° South 428 493 35,000  Level FlightAware
Tue 02:33:32 AM 23.8150 -79.0900 187° South 428 493 35,000  Level FlightAware
Tue 02:34:12 AM 23.7480 -79.0990 187° South 428 493 35,000  Level FlightAware
Tue 02:34:52 AM 23.6820 -79.1080 187° South 428 493 35,000  Level FlightAware
Tue 02:35:32 AM 23.6150 -79.1170 187° South 428 493 35,000  Level FlightAware
Tue 02:36:22 AM 23.5310 -79.1280 187° South 428 493 35,000  Level FlightAware
Tue 02:38:00 AM 23.3380 -79.1119 176° South  Level FlightAware
Tue 02:39:00 AM 23.2198 -79.1020 176° South  Level FlightAware
Tue 02:40:00 AM 23.1016 -79.0922 176° South  Level FlightAware
Tue 02:41:00 AM 22.9834 -79.0824 176° South  Level FlightAware
Tue 02:42:00 AM 22.8652 -79.0726 176° South  Level FlightAware
Tue 02:43:00 AM 22.7471 -79.0628 176° South  Level FlightAware
Tue 02:44:00 AM 22.6289 -79.0530 176° South  Level FlightAware
Tue 02:45:00 AM 22.5107 -79.0433 176° South  Level FlightAware
Tue 02:46:00 AM 22.3925 -79.0336 176° South  Level FlightAware
Tue 02:47:00 AM 22.2743 -79.0239 176° South  Level FlightAware
Tue 02:48:00 AM 22.1561 -79.0142 176° South  Level FlightAware
Tue 02:49:00 AM 22.0379 -79.0045 176° South  Level FlightAware
Tue 02:50:00 AM 21.9197 -78.9948 176° South  Level FlightAware
Tue 02:51:00 AM 21.8015 -78.9852 176° South  Level FlightAware
Tue 02:52:00 AM 21.6834 -78.9755 176° South  Level FlightAware
Tue 02:53:00 AM 21.5652 -78.9659 176° South  Level FlightAware
Tue 02:54:00 AM 21.4470 -78.9563 176° South  Level FlightAware
Tue 02:55:00 AM 21.3288 -78.9467 176° South  Level FlightAware
Tue 02:56:00 AM 21.2106 -78.9371 176° South  Level FlightAware
Tue 02:57:00 AM 21.0924 -78.9276 176° South  Level FlightAware
Tue 02:58:00 AM 20.9742 -78.9181 176° South  Level FlightAware
Tue 02:59:00 AM 20.8560 -78.9085 176° South  Level FlightAware
Tue 03:00:00 AM 20.7373 -78.8994 178° South  Level FlightAware
Tue 03:01:00 AM 20.6188 -78.8941 178° South  Level FlightAware
Tue 03:02:00 AM 20.5004 -78.8889 178° South  Level FlightAware
Tue 03:03:00 AM 20.3820 -78.8836 178° South  Level FlightAware
Tue 03:04:00 AM 20.2635 -78.8783 178° South  Level FlightAware
Tue 03:05:00 AM 20.1451 -78.8731 178° South  Level FlightAware
Tue 03:06:00 AM 20.0267 -78.8679 178° South  Level FlightAware
Tue 03:07:00 AM 19.9083 -78.8626 178° South  Level FlightAware
Tue 03:08:00 AM 19.7899 -78.8573 178° South  Level FlightAware
Tue 03:09:00 AM 19.6714 -78.8521 178° South  Level FlightAware
Tue 03:10:00 AM 19.5530 -78.8468 178° South  Level FlightAware
Tue 03:11:00 AM 19.4346 -78.8415 178° South  Level FlightAware
Tue 03:12:00 AM 19.3162 -78.8363 178° South  Level FlightAware
Tue 03:13:00 AM 19.1978 -78.8311 178° South  Level FlightAware
Tue 03:14:00 AM 19.0793 -78.8258 178° South  Level FlightAware
Tue 03:15:00 AM 18.9609 -78.8206 178° South  Level FlightAware
Tue 03:16:00 AM 18.8425 -78.8154 178° South  Level FlightAware
Tue 03:17:00 AM 18.7240 -78.8102 178° South  Level FlightAware
Tue 03:18:00 AM 18.6056 -78.8050 178° South  Level FlightAware
Tue 03:19:00 AM 18.4872 -78.7998 178° South  Level FlightAware
Tue 03:20:00 AM 18.3687 -78.7946 178° South  Level FlightAware
Tue 03:21:00 AM 18.2503 -78.7895 178° South  Level FlightAware
Tue 03:22:00 AM 18.1319 -78.7843 178° South  Level FlightAware
Tue 03:23:00 AM 18.0135 -78.7791 178° South  Level FlightAware
Tue 03:24:00 AM 17.8950 -78.7740 178° South  Level FlightAware
Tue 03:25:00 AM 17.7766 -78.7688 178° South  Level FlightAware
Tue 03:26:00 AM 17.6582 -78.7637 178° South  Level FlightAware
Tue 03:27:00 AM 17.5397 -78.7586 178° South  Level FlightAware
Tue 03:28:00 AM 17.4213 -78.7534 178° South  Level FlightAware
Tue 03:29:00 AM 17.3029 -78.7483 178° South  Level FlightAware
Tue 03:30:00 AM 17.1844 -78.7432 178° South  Level FlightAware
Tue 03:31:00 AM 17.0660 -78.7381 178° South  Level FlightAware
Tue 03:32:00 AM 16.9476 -78.7330 178° South  Level FlightAware
Tue 03:33:00 AM 16.8291 -78.7279 178° South  Level FlightAware
Tue 03:34:00 AM 16.7107 -78.7228 178° South  Level FlightAware
Tue 03:35:00 AM 16.5923 -78.7177 178° South  Level FlightAware
Tue 03:36:00 AM 16.4739 -78.7127 178° South  Level FlightAware
Tue 03:37:00 AM 16.3554 -78.7076 178° South  Level FlightAware
Tue 03:38:00 AM 16.2370 -78.7025 178° South  Level FlightAware
Tue 03:39:00 AM 16.1186 -78.6975 178° South  Level FlightAware
Tue 03:40:00 AM 16.0001 -78.6924 178° South  Level FlightAware
Tue 03:41:00 AM 15.8817 -78.6874 178° South  Level FlightAware
Tue 03:42:00 AM 15.7633 -78.6823 178° South  Level FlightAware
Tue 03:43:00 AM 15.6448 -78.6773 178° South  Level FlightAware
Tue 03:44:00 AM 15.5264 -78.6723 178° South  Level FlightAware
Tue 03:45:00 AM 15.4080 -78.6673 178° South  Level FlightAware
Tue 03:46:00 AM 15.2896 -78.6622 178° South  Level FlightAware
Tue 03:47:00 AM 15.1711 -78.6572 178° South  Level FlightAware
Tue 03:48:00 AM 15.0527 -78.6522 178° South  Level FlightAware
Tue 03:49:00 AM 14.9344 -78.6470 178° South  Level FlightAware
Tue 03:50:00 AM 14.8159 -78.6417 178° South  Level FlightAware
Tue 03:51:00 AM 14.6975 -78.6364 178° South  Level FlightAware
Tue 03:52:00 AM 14.5791 -78.6311 178° South  Level FlightAware
Tue 03:53:00 AM 14.4607 -78.6258 178° South  Level FlightAware
Tue 03:54:00 AM 14.3422 -78.6205 178° South  Level FlightAware
Tue 03:55:00 AM 14.2238 -78.6152 178° South  Level FlightAware
Tue 03:56:00 AM 14.1054 -78.6099 178° South  Level FlightAware
Tue 03:57:00 AM 13.9870 -78.6046 178° South  Level FlightAware
Tue 03:58:00 AM 13.8686 -78.5993 178° South  Level FlightAware
Tue 03:59:00 AM 13.7501 -78.5941 178° South  Level FlightAware
Tue 04:00:00 AM 13.6317 -78.5888 178° South  Level FlightAware
Tue 04:01:00 AM 13.5133 -78.5835 178° South  Level FlightAware
Tue 04:02:00 AM 13.3949 -78.5783 178° South  Level FlightAware
Tue 04:03:00 AM 13.2765 -78.5730 178° South  Level FlightAware
Tue 04:04:00 AM 13.1580 -78.5678 178° South  Level FlightAware
Tue 04:05:00 AM 13.0397 -78.5626 178° South  Level FlightAware
Tue 04:05:52 AM 12.3190 -79.4230 178° South 451 519 35,000  Level FlightAware
Tue 04:06:00 AM 12.9213 -78.5575 178° South  Level FlightAware
Tue 04:06:32 AM 12.2350 -79.4260 182° South 451 519 35,000  Level FlightAware
Tue 04:07:17 AM 12.1450 -79.4290 182° South 451 519 35,000  Level FlightAware
Tue 04:07:52 AM 12.0810 -79.4310 182° South 451 519 35,000  Level FlightAware
Tue 04:09:37 AM 11.8530 -79.4390 182° South 449 517 35,000  Level FlightAware
Tue 04:10:17 AM 11.7710 -79.4420 182° South 448 516 35,000  Level FlightAware
Tue 04:10:57 AM 11.6900 -79.4440 181° South 448 516 35,000  Level FlightAware
Tue 04:11:42 AM 11.5930 -79.4480 182° South 448 516 35,000  Level FlightAware
Tue 04:12:22 AM 11.5110 -79.4510 182° South 448 516 35,000  Level FlightAware
Tue 04:13:07 AM 11.4190 -79.4540 182° South 449 517 35,000  Level FlightAware
Tue 04:13:47 AM 11.3300 -79.4570 182° South 449 517 35,000  Level FlightAware
Tue 04:14:27 AM 11.2460 -79.4600 182° South 450 518 35,000  Level FlightAware
Tue 04:15:12 AM 11.1530 -79.4630 182° South 451 519 35,000  Level FlightAware
Tue 04:15:52 AM 11.0680 -79.4660 182° South 451 519 35,000  Level FlightAware
Tue 04:16:37 AM 10.9720 -79.4690 182° South 451 519 35,000  Level FlightAware
Tue 04:17:22 AM 10.8800 -79.4720 182° South 451 519 35,000  Level FlightAware
Tue 04:17:57 AM 10.8040 -79.4750 182° South 451 519 35,000  Level FlightAware
Tue 04:20:00 AM 10.5623 -79.4495 174° South  Level Estimated
Tue 04:20:37 AM 10.4770 -79.4860 174° South 451 519 35,000  Level FlightAware
Tue 04:21:17 AM 10.3930 -79.4890 182° South 450 518 35,000  Level FlightAware
Tue 04:21:57 AM 10.3100 -79.4920 182° South 450 518 35,000  Level FlightAware
Tue 04:22:42 AM 10.2150 -79.4950 182° South 449 517 35,000  Level FlightAware
Tue 04:23:22 AM 10.1310 -79.4980 182° South 448 516 35,000  Level FlightAware
Tue 04:24:02 AM 10.0480 -79.5010 182° South 448 516 35,000  Level FlightAware
Tue 04:24:47 AM 9.9520 -79.5040 182° South 448 516 35,000  Level FlightAware
Tue 04:25:32 AM 9.8590 -79.5080 182° South 448 516 35,000  Level FlightAware
Tue 04:26:12 AM 9.7750 -79.5100 181° South 448 516 35,000  Level FlightAware
Tue 04:26:52 AM 9.6900 -79.5130 182° South 449 517 35,000  Level FlightAware
Tue 04:27:37 AM 9.5950 -79.5170 182° South 449 517 35,000  Level FlightAware
Tue 04:28:17 AM 9.5120 -79.5190 181° South 449 517 35,000  Level FlightAware
Tue 04:28:52 AM 9.4390 -79.5220 182° South 449 517 35,000  Level FlightAware
Tue 04:31:00 AM 9.1877 -79.4934 174° South  Level Estimated
Tue 04:31:17 AM 9.1360 -79.5320 174° South 449 517 35,000  Level FlightAware
Tue 04:32:37 AM 8.9850 -79.5370 182° South 450 518 35,000  Level FlightAware
Tue 04:33:27 AM 8.8970 -79.5380 181° South 450 518 35,000  Level FlightAware
Tue 04:34:07 AM 8.8260 -79.5400 182° South 450 518 35,000  Level FlightAware
Tue 04:34:47 AM 8.7550 -79.5410 181° South 450 518 35,000  Level FlightAware
Tue 04:35:27 AM 8.6850 -79.5420 181° South 450 518 35,000  Level FlightAware
Tue 04:36:07 AM 8.6140 -79.5430 181° South 450 518 35,000  Level FlightAware
Tue 04:36:57 AM 8.5250 -79.5450 181° South 450 518 35,000  Level FlightAware
Tue 04:37:37 AM 8.4550 -79.5460 181° South 450 518 35,000  Level FlightAware
Tue 04:38:17 AM 8.3840 -79.5470 181° South 450 518 35,000  Level FlightAware
Tue 04:38:57 AM 8.3130 -79.5490 182° South 450 518 35,000  Level FlightAware
Tue 04:39:47 AM 8.2250 -79.5500 181° South 450 518 35,000  Level FlightAware
Tue 04:40:27 AM 8.1540 -79.5510 181° South 450 518 35,000  Level FlightAware
Tue 04:41:07 AM 8.0830 -79.5530 182° South 450 518 35,000  Level FlightAware
Tue 04:41:47 AM 8.0120 -79.5540 181° South 450 518 35,000  Level FlightAware
Tue 04:44:00 AM 7.7512 -79.5220 173° South  Level Estimated
Tue 04:45:00 AM 7.6335 -79.5076 173° South  Level Estimated
Tue 04:46:00 AM 7.5159 -79.4932 173° South  Level Estimated
Tue 04:47:00 AM 7.3982 -79.4788 173° South  Level Estimated
Tue 04:48:00 AM 7.2805 -79.4643 173° South  Level Estimated
Tue 04:49:00 AM 7.1629 -79.4500 173° South  Level Estimated
Tue 04:50:00 AM 7.0452 -79.4356 173° South  Level Estimated
Tue 04:51:00 AM 6.9275 -79.4212 173° South  Level Estimated
Tue 04:52:00 AM 6.8099 -79.4068 173° South  Level Estimated
Tue 04:53:00 AM 6.6922 -79.3925 173° South  Level Estimated
Tue 04:54:00 AM 6.5745 -79.3781 173° South  Level Estimated
Tue 04:55:00 AM 6.4569 -79.3637 173° South  Level Estimated
Tue 04:56:00 AM 6.3392 -79.3494 173° South  Level Estimated
Tue 04:57:00 AM 6.2215 -79.3351 173° South  Level Estimated
Tue 04:58:00 AM 6.1038 -79.3207 173° South  Level Estimated
Tue 04:59:00 AM 5.9862 -79.3064 173° South  Level Estimated
Tue 05:00:00 AM 5.8685 -79.2921 173° South  Level Estimated
Tue 05:01:00 AM 5.7508 -79.2778 173° South  Level Estimated
Tue 05:02:00 AM 5.6332 -79.2635 173° South  Level Estimated
Tue 05:03:00 AM 5.5155 -79.2492 173° South  Level Estimated
Tue 05:04:00 AM 5.3978 -79.2349 173° South  Level Estimated
Tue 05:05:00 AM 5.2801 -79.2206 173° South  Level Estimated
Tue 05:06:00 AM 5.1625 -79.2063 173° South  Level Estimated
Tue 05:07:00 AM 5.0448 -79.1920 173° South  Level Estimated
Tue 05:08:00 AM 4.9271 -79.1778 173° South  Level Estimated
Tue 05:09:00 AM 4.8095 -79.1635 173° South  Level Estimated
Tue 05:10:00 AM 4.6918 -79.1492 173° South  Level Estimated
Tue 05:11:00 AM 4.5741 -79.1350 173° South  Level Estimated
Tue 05:12:00 AM 4.4565 -79.1207 173° South  Level Estimated
Tue 05:13:00 AM 4.3388 -79.1065 173° South  Level Estimated
Tue 05:14:00 AM 4.2211 -79.0922 173° South  Level Estimated
Tue 05:15:00 AM 4.1034 -79.0780 173° South  Level Estimated
Tue 05:16:00 AM 3.9858 -79.0638 173° South  Level Estimated
Tue 05:17:00 AM 3.8681 -79.0495 173° South  Level Estimated
Tue 05:18:00 AM 3.7504 -79.0353 173° South  Level Estimated
Tue 05:19:00 AM 3.6328 -79.0211 173° South  Level Estimated
Tue 05:20:00 AM 3.5151 -79.0069 173° South  Level Estimated
Tue 05:21:00 AM 3.3974 -78.9926 173° South  Level Estimated
Tue 05:22:00 AM 3.2797 -78.9784 173° South  Level Estimated
Tue 05:23:00 AM 3.1620 -78.9642 173° South  Level Estimated
Tue 05:24:00 AM 3.0443 -78.9500 173° South  Level Estimated
Tue 05:25:00 AM 2.9267 -78.9358 173° South  Level Estimated
Tue 05:26:00 AM 2.8090 -78.9216 173° South  Level Estimated
Tue 05:27:00 AM 2.6913 -78.9074 173° South  Level Estimated
Tue 05:28:00 AM 2.5736 -78.8932 173° South  Level Estimated
Tue 05:29:00 AM 2.4560 -78.8790 173° South  Level Estimated
Tue 05:30:00 AM 2.3383 -78.8648 173° South  Level Estimated
Tue 05:31:00 AM 2.2206 -78.8506 173° South  Level Estimated
Tue 05:32:00 AM 2.1029 -78.8364 173° South  Level Estimated
Tue 05:33:00 AM 1.9852 -78.8223 173° South  Level Estimated
Tue 05:34:00 AM 1.8676 -78.8081 173° South  Level Estimated
Tue 05:35:00 AM 1.7499 -78.7939 173° South  Level Estimated
Tue 05:36:00 AM 1.6322 -78.7797 173° South  Level Estimated
Tue 05:37:00 AM 1.5145 -78.7655 173° South  Level Estimated
Tue 05:38:00 AM 1.3968 -78.7514 173° South  Level Estimated
Tue 05:39:00 AM 1.2792 -78.7372 173° South  Level Estimated
Tue 05:40:00 AM 1.1615 -78.7230 173° South  Level Estimated
Tue 05:41:00 AM 1.0438 -78.7089 173° South  Level Estimated
Tue 05:42:00 AM 0.9261 -78.6947 173° South  Level Estimated
Tue 05:43:00 AM 0.8084 -78.6805 173° South  Level Estimated
Tue 05:44:00 AM 0.6908 -78.6664 173° South  Level Estimated
Tue 05:45:00 AM 0.5731 -78.6522 173° South  Level Estimated
Tue 05:46:00 AM 0.4554 -78.6380 173° South  Level Estimated
Tue 05:47:00 AM 0.3377 -78.6238 173° South  Level Estimated
Tue 05:48:00 AM 0.2200 -78.6097 173° South  Level Estimated
Tue 05:49:00 AM 0.1023 -78.5955 173° South  Level Estimated
Tue 05:50:00 AM -0.0153 -78.5813 173° South  Level Estimated
Tue 05:51:00 AM -0.1330 -78.5672 173° South  Level Estimated
Tue 05:52:00 AM -0.2507 -78.5530 173° South  Level Estimated
Tue 05:53:00 AM -0.3684 -78.5388 173° South  Level Estimated
Tue 05:54:00 AM -0.4861 -78.5247 173° South  Level Estimated
Tue 05:55:00 AM -0.6037 -78.5105 173° South  Level Estimated
Tue 05:56:00 AM -0.7214 -78.4963 173° South  Level Estimated
Tue 05:57:00 AM -0.8391 -78.4821 173° South  Level Estimated
Tue 05:58:00 AM -0.9568 -78.4680 173° South  Level Estimated
Tue 05:59:00 AM -1.0745 -78.4538 173° South  Level Estimated
Tue 06:00:00 AM -1.1921 -78.4396 173° South  Level Estimated
Tue 06:01:00 AM -1.3098 -78.4255 173° South  Level Estimated
Tue 06:02:00 AM -1.4275 -78.4113 173° South  Level Estimated
Tue 06:03:00 AM -1.5452 -78.3971 173° South  Level Estimated
Tue 06:04:00 AM -1.6629 -78.3829 173° South  Level Estimated
Tue 06:05:00 AM -1.7805 -78.3688 173° South  Level Estimated
Tue 06:06:00 AM -1.8982 -78.3546 173° South  Level Estimated
Tue 06:07:00 AM -2.0159 -78.3404 173° South  Level Estimated
Tue 06:08:00 AM -2.1336 -78.3262 173° South  Level Estimated
Tue 06:09:00 AM -2.2513 -78.3120 173° South  Level Estimated
Tue 06:10:00 AM -2.3689 -78.2979 173° South  Level Estimated
Tue 06:11:00 AM -2.4866 -78.2837 173° South  Level Estimated
Tue 06:12:00 AM -2.6043 -78.2695 173° South  Level Estimated
Tue 06:13:00 AM -2.7220 -78.2553 173° South  Level Estimated
Tue 06:14:00 AM -2.8396 -78.2411 173° South  Level Estimated
Tue 06:15:00 AM -2.9573 -78.2269 173° South  Level Estimated
Tue 06:16:00 AM -3.0750 -78.2127 173° South  Level Estimated
Tue 06:17:00 AM -3.1927 -78.1985 173° South  Level Estimated
Tue 06:18:00 AM -3.3104 -78.1842 173° South  Level Estimated
Tue 06:19:00 AM -3.4281 -78.1700 173° South  Level Estimated
Tue 06:20:00 AM -3.5457 -78.1558 173° South  Level Estimated
Tue 06:21:00 AM -3.6634 -78.1416 173° South  Level Estimated
Tue 06:22:00 AM -3.7811 -78.1274 173° South  Level Estimated
Tue 06:23:00 AM -3.8988 -78.1132 173° South  Level Estimated
Tue 06:24:00 AM -4.0164 -78.0989 173° South  Level Estimated
Tue 06:25:00 AM -4.1341 -78.0847 173° South  Level Estimated
Tue 06:26:00 AM -4.2518 -78.0704 173° South  Level Estimated
Tue 06:27:00 AM -4.3694 -78.0562 173° South  Level Estimated
Tue 06:28:00 AM -4.4871 -78.0419 173° South  Level Estimated
Tue 06:29:00 AM -4.6048 -78.0277 173° South  Level Estimated
Tue 06:30:00 AM -4.7224 -78.0134 173° South  Level Estimated
Tue 06:31:00 AM -4.8401 -77.9992 173° South  Level Estimated
Tue 06:32:00 AM -4.9578 -77.9849 173° South  Level Estimated
Tue 06:33:00 AM -5.0755 -77.9706 173° South  Level Estimated
Tue 06:34:00 AM -5.1931 -77.9564 173° South  Level Estimated
Tue 06:35:00 AM -5.3108 -77.9421 173° South  Level Estimated
Tue 06:36:00 AM -5.4285 -77.9278 173° South  Level Estimated
Tue 06:37:00 AM -5.5461 -77.9135 173° South  Level Estimated
Tue 06:38:00 AM -5.6638 -77.8992 173° South  Level Estimated
Tue 06:39:00 AM -5.7815 -77.8849 173° South  Level Estimated
Tue 06:40:00 AM -5.8991 -77.8706 173° South  Level Estimated
Tue 06:41:00 AM -6.0168 -77.8562 173° South  Level Estimated
Tue 06:42:00 AM -6.1345 -77.8419 173° South  Level Estimated
Tue 06:43:00 AM -6.2522 -77.8276 173° South  Level Estimated
Tue 06:44:00 AM -6.3698 -77.8132 173° South  Level Estimated
Tue 06:45:00 AM -6.4875 -77.7989 173° South  Level Estimated
Tue 06:46:00 AM -6.6052 -77.7846 173° South  Level Estimated
Tue 06:47:00 AM -6.7228 -77.7702 173° South  Level Estimated
Tue 06:48:00 AM -6.8405 -77.7558 173° South  Level Estimated
Tue 06:49:00 AM -6.9582 -77.7414 173° South  Level Estimated
Tue 06:50:00 AM -7.0759 -77.7271 173° South  Level Estimated
Tue 06:51:00 AM -7.1935 -77.7127 173° South  Level Estimated
Tue 06:52:00 AM -7.3112 -77.6983 173° South  Level Estimated
Tue 06:53:00 AM -7.4289 -77.6839 173° South  Level Estimated
Tue 06:54:00 AM -7.5465 -77.6695 173° South  Level Estimated
Tue 06:55:00 AM -7.6642 -77.6551 173° South  Level Estimated
Tue 06:56:00 AM -7.7818 -77.6406 173° South  Level Estimated
Tue 06:57:00 AM -7.8995 -77.6262 173° South  Level Estimated
Tue 06:58:00 AM -8.0171 -77.6118 173° South  Level Estimated
Tue 06:59:00 AM -8.1348 -77.5973 173° South  Level Estimated
Tue 07:00:00 AM -8.2525 -77.5828 173° South  Level Estimated
Tue 07:01:00 AM -8.3701 -77.5684 173° South  Level Estimated
Tue 07:02:00 AM -8.4878 -77.5539 173° South  Level Estimated
Tue 07:03:00 AM -8.6054 -77.5394 173° South  Level Estimated
Tue 07:04:00 AM -8.7231 -77.5249 173° South  Level Estimated
Tue 07:05:00 AM -8.8408 -77.5104 173° South  Level Estimated
Tue 07:06:00 AM -8.9584 -77.4959 173° South  Level Estimated
Tue 07:07:00 AM -9.0761 -77.4814 173° South  Level Estimated
Tue 07:08:00 AM -9.1938 -77.4669 173° South  Level Estimated
Tue 07:09:00 AM -9.3114 -77.4523 173° South  Level Estimated
Tue 07:10:00 AM -9.4291 -77.4378 173° South  Level Estimated
Tue 07:11:00 AM -9.5467 -77.4232 173° South  Level Estimated
Tue 07:12:00 AM -9.6644 -77.4087 173° South  Level Estimated
Tue 07:13:00 AM -9.7820 -77.3941 173° South  Level Estimated
Tue 07:14:00 AM -9.8997 -77.3795 173° South  Level Estimated
Tue 07:15:00 AM -10.0173 -77.3649 173° South  Level Estimated
Tue 07:16:00 AM -10.1350 -77.3503 173° South  Level Estimated
Tue 07:17:00 AM -10.2526 -77.3356 173° South  Level Estimated
Tue 07:18:00 AM -10.3703 -77.3210 173° South  Level Estimated
Tue 07:19:00 AM -10.4879 -77.3064 173° South  Level Estimated
Tue 07:20:00 AM -10.6056 -77.2917 173° South  Level Estimated
Tue 07:21:00 AM -10.7232 -77.2770 173° South  Level Estimated
Tue 07:22:00 AM -10.8409 -77.2624 173° South  Level Estimated
Tue 07:23:00 AM -10.9585 -77.2477 173° South  Level Estimated
Tue 07:24:00 AM -11.0762 -77.2330 173° South  Level Estimated
Tue 07:25:00 AM -11.1938 -77.2182 173° South  Level Estimated
Tue 07:26:00 AM -11.3115 -77.2035 173° South  Level Estimated
Tue 07:27:00 AM -11.4291 -77.1888 173° South  Level Estimated
Tue 07:28:00 AM -11.5467 -77.1740 173° South  Level Estimated
Tue 07:29:00 AM -11.6644 -77.1593 173° South  Level Estimated
Tue 07:30:00 AM -11.7820 -77.1445 173° South  Level Estimated
Tue 07:31:00 AM -11.8997 -77.1297 173° South  Level Estimated
Tue 07:32:00 AM -12.0173 -77.1149 173° South  Level Estimated
Tue 07:33:00 AM -12.0219 -77.1143 173° South  Level Estimated
Tue 07:34:00 AM -12.0219 -77.1143 44° Northeast  Level Estimated
Tue 07:35:00 AM -12.0219 -77.1143 44° Northeast  Level Estimated
Tue 07:36:00 AM -12.0219 -77.1143 44° Northeast  Level Estimated
Tue 07:37:00 AM -12.0219 -77.1143 44° Northeast  Level Estimated
Tue 07:38:00 AM -12.0219 -77.1143 44° Northeast  Level Estimated
Tue 07:39:00 AM -12.0219 -77.1143 44° Northeast  Level Estimated
Tue 07:40:00 AM -12.0219 -77.1143 44° Northeast  Level Estimated
Tue 07:41:00 AM -12.0219 -77.1143 44° Northeast  Level Estimated
Tue 07:42:00 AM -12.0219 -77.1143 44° Northeast  Level Estimated
Tue 07:43:00 AM -12.0219 -77.1143 44° Northeast  Level Estimated
Tue 07:44:00 AM -12.0219 -77.1143 44° Northeast  Level Estimated
Tue 07:45:00 AM -12.0219 -77.1143 44° Northeast  Level Estimated
Tue 07:46:00 AM -12.0219 -77.1143 44° Northeast  Level Estimated
Tue 07:47:00 AM -12.0219 -77.1143 44° Northeast  Level Estimated
Tue 07:48:00 AM -12.0219 -77.1143 44° Northeast  Level Estimated
Tue 07:49:00 AM -12.0219 -77.1143 44° Northeast  Level Estimated
Tue 07:50:00 AM -12.0219 -77.1143 44° Northeast  Level Estimated

Login

Don't have an account? Register now (free) for customized features, flight alerts, and more!